Time;durP1;ratioP1;P1;durP2;ratioP2;P2;SDS_P1;SDS_P2;PMS_P1;PMS_P2;Temp;Humidity;BMP_temperature;BMP_pressure;BME280_temperature;BME280_humidity;BME280_pressure;Samples;Min_cycle;Max_cycle;Signal;HPM_P1;HPM_P2
2020/12/19 00:00:00;;;;;;;10.50;3.25;;;24.40;45.20;;;;;;5075539;28;20056;-48
2020/12/19 00:02:27;;;;;;;19.85;4.00;;;24.40;45.10;;;;;;5075586;28;20524;-48
2020/12/19 00:04:53;;;;;;;10.18;3.50;;;24.50;45.10;;;;;;5075191;28;20026;-48
2020/12/19 00:07:20;;;;;;;12.63;3.53;;;24.50;45.00;;;;;;5075695;28;20035;-49
2020/12/19 00:09:46;;;;;;;8.63;3.50;;;24.50;44.90;;;;;;5075151;28;20035;-48
2020/12/19 00:12:13;;;;;;;12.23;3.78;;;24.50;45.00;;;;;;5075622;28;20021;-49
2020/12/19 00:14:39;;;;;;;11.73;4.07;;;24.60;44.90;;;;;;5075540;28;20074;-49
2020/12/19 00:17:06;;;;;;;11.65;3.78;;;24.60;45.00;;;;;;5075658;28;20080;-48
2020/12/19 00:19:32;;;;;;;17.98;3.47;;;24.70;44.90;;;;;;5075001;28;20066;-51
2020/12/19 00:21:59;;;;;;;12.32;3.47;;;24.70;44.90;;;;;;5075023;28;20035;-49
2020/12/19 00:24:25;;;;;;;13.70;3.20;;;24.80;44.90;;;;;;5075394;28;20084;-49
2020/12/19 00:26:52;;;;;;;12.52;3.20;;;24.90;44.90;;;;;;5075298;28;20017;-48
2020/12/19 00:29:18;;;;;;;19.60;4.15;;;25.00;44.80;;;;;;5074920;28;20360;-49
2020/12/19 00:31:45;;;;;;;15.30;3.72;;;25.10;44.80;;;;;;5075223;28;20102;-49
2020/12/19 00:34:11;;;;;;;18.70;4.15;;;25.20;44.80;;;;;;5074885;28;20044;-49
2020/12/19 00:36:38;;;;;;;14.85;3.33;;;25.40;44.80;;;;;;5075324;28;20471;-49
2020/12/19 00:39:06;;;;;;;14.35;3.58;;;25.50;44.70;;;;;;5075050;28;20067;-49
2020/12/19 00:41:33;;;;;;;12.82;3.65;;;25.70;44.60;;;;;;5074920;28;20024;-49
2020/12/19 00:44:00;;;;;;;11.02;3.33;;;25.80;44.50;;;;;;5074718;28;20035;-49
2020/12/19 00:46:26;;;;;;;11.25;3.15;;;26.00;44.40;;;;;;5074904;28;20024;-49
2020/12/19 00:48:53;;;;;;;11.93;3.28;;;26.10;44.30;;;;;;5074251;28;20028;-49
2020/12/19 00:51:22;;;;;;;11.82;3.33;;;26.20;44.10;;;;;;5074802;28;20395;-49
2020/12/19 00:53:49;;;;;;;9.32;3.17;;;26.40;44.00;;;;;;5075067;28;20016;-49
2020/12/19 00:56:20;;;;;;;12.10;3.40;;;26.50;43.90;;;;;;5074309;28;20500;-49
2020/12/19 00:58:47;;;;;;;9.55;3.17;;;26.60;43.70;;;;;;5074738;28;20073;-49
2020/12/19 01:01:15;;;;;;;7.97;2.90;;;26.60;43.60;;;;;;5074882;28;20054;-49
2020/12/19 01:03:43;;;;;;;8.50;3.28;;;26.70;43.50;;;;;;5074383;28;20036;-49
2020/12/19 01:06:17;;;;;;;5.57;2.53;;;26.80;43.40;;;;;;5074505;28;20025;-49
2020/12/19 01:08:54;;;;;;;9.32;3.20;;;27.00;43.30;;;;;;5074453;28;20020;-49
2020/12/19 01:11:23;;;;;;;10.98;2.97;;;27.00;43.20;;;;;;5073791;28;20169;-49
2020/12/19 01:13:50;;;;;;;15.45;3.42;;;27.10;43.00;;;;;;5074064;28;20056;-49
2020/12/19 01:16:21;;;;;;;22.95;4.10;;;27.10;42.80;;;;;;5073044;28;20453;-49
2020/12/19 01:18:50;;;;;;;13.93;3.10;;;27.10;42.60;;;;;;5074026;28;20028;-49
2020/12/19 01:21:19;;;;;;;17.67;3.40;;;27.20;42.80;;;;;;5073924;28;20472;-49
2020/12/19 01:23:47;;;;;;;9.57;2.95;;;27.20;42.80;;;;;;5073887;28;20042;-49
2020/12/19 01:26:15;;;;;;;15.48;3.28;;;27.20;42.80;;;;;;5073047;28;20056;-49
2020/12/19 01:28:43;;;;;;;11.30;2.90;;;27.20;42.70;;;;;;5074068;28;20024;-49
2020/12/19 01:31:11;;;;;;;10.63;3.05;;;27.30;42.70;;;;;;5074067;28;20456;-49
2020/12/19 01:33:38;;;;;;;14.13;3.05;;;27.30;42.70;;;;;;5073644;28;20049;-49
2020/12/19 01:36:13;;;;;;;11.88;3.00;;;27.30;42.60;;;;;;5073709;28;20017;-49
2020/12/19 01:38:40;;;;;;;10.30;2.83;;;27.30;43.30;;;;;;5073784;28;20434;-49
2020/12/19 01:41:07;;;;;;;9.30;2.42;;;27.30;42.60;;;;;;5074006;28;20107;-49
2020/12/19 01:43:54;;;;;;;8.57;2.38;;;27.30;42.60;;;;;;5073958;28;20017;-49
2020/12/19 01:46:33;;;;;;;8.57;2.47;;;27.30;42.70;;;;;;5073732;28;20025;-49
2020/12/19 01:49:02;;;;;;;10.73;2.63;;;27.40;42.60;;;;;;5074388;28;20029;-49
2020/12/19 01:51:29;;;;;;;7.70;2.53;;;27.40;42.50;;;;;;5073849;28;20103;-49
2020/12/19 01:53:57;;;;;;;10.65;2.42;;;27.50;42.60;;;;;;5073865;28;20021;-49
2020/12/19 01:56:46;;;;;;;6.82;2.50;;;27.50;42.60;;;;;;5073739;28;20411;-49
2020/12/19 01:59:13;;;;;;;7.43;2.35;;;27.50;42.60;;;;;;5072631;28;20392;-49
2020/12/19 02:01:45;;;;;;;6.63;2.15;;;27.50;42.50;;;;;;5073721;28;20021;-50
2020/12/19 02:04:12;;;;;;;7.50;2.65;;;27.60;42.50;;;;;;5073704;28;20017;-49
2020/12/19 02:06:40;;;;;;;6.38;2.40;;;27.60;42.50;;;;;;5073788;28;20047;-49
2020/12/19 02:09:08;;;;;;;6.75;2.40;;;27.60;42.30;;;;;;5075461;28;20044;-49
2020/12/19 02:11:34;;;;;;;7.88;2.70;;;27.60;42.20;;;;;;5077579;28;20025;-49
2020/12/19 02:14:01;;;;;;;11.52;2.40;;;27.60;42.20;;;;;;5072266;28;20055;-48
2020/12/19 02:16:27;;;;;;;10.50;2.47;;;27.60;42.20;;;;;;5057428;28;20477;-49
2020/12/19 02:18:54;;;;;;;6.68;2.13;;;27.60;42.20;;;;;;5063865;28;20020;-49
2020/12/19 02:21:21;;;;;;;7.43;2.72;;;27.70;42.30;;;;;;5077299;28;20055;-49
2020/12/19 02:23:47;;;;;;;9.00;2.50;;;27.70;42.50;;;;;;5076193;28;20376;-49
2020/12/19 02:26:14;;;;;;;12.23;2.53;;;27.70;42.70;;;;;;5077619;28;20021;-49
2020/12/19 02:28:40;;;;;;;10.18;2.75;;;27.70;42.70;;;;;;5077434;28;20125;-49
2020/12/19 02:31:07;;;;;;;11.90;2.55;;;27.70;43.00;;;;;;5076982;28;20369;-49
2020/12/19 02:33:33;;;;;;;8.73;2.13;;;27.80;43.10;;;;;;5077435;28;20051;-49
2020/12/19 02:36:00;;;;;;;9.95;2.22;;;27.80;43.10;;;;;;5076083;28;20020;-49
2020/12/19 02:38:26;;;;;;;6.80;2.10;;;27.90;43.10;;;;;;5076700;28;20103;-48
2020/12/19 02:40:53;;;;;;;5.97;2.30;;;28.00;43.00;;;;;;5077574;28;20103;-49
2020/12/19 02:43:20;;;;;;;8.15;2.38;;;28.00;43.00;;;;;;5076990;28;20514;-49
2020/12/19 02:45:47;;;;;;;6.10;2.55;;;28.10;42.90;;;;;;5076949;28;20536;-48
2020/12/19 02:48:13;;;;;;;9.05;2.50;;;28.20;42.90;;;;;;5076775;28;20016;-49
2020/12/19 02:50:40;;;;;;;9.57;2.40;;;28.10;42.70;;;;;;5077124;28;20456;-49
2020/12/19 02:53:06;;;;;;;8.15;2.15;;;28.20;41.80;;;;;;5076878;28;20016;-49
2020/12/19 02:55:33;;;;;;;9.73;1.98;;;28.20;41.10;;;;;;5077007;28;20046;-49
2020/12/19 02:57:59;;;;;;;8.48;2.22;;;28.20;41.10;;;;;;5076952;28;20025;-49
2020/12/19 03:00:26;;;;;;;9.73;2.00;;;28.10;40.90;;;;;;5076496;28;20025;-49
2020/12/19 03:02:52;;;;;;;6.47;1.90;;;28.20;41.00;;;;;;5077214;28;20025;-49
2020/12/19 03:05:19;;;;;;;12.13;2.30;;;28.10;41.60;;;;;;5077172;28;20442;-49
2020/12/19 03:07:46;;;;;;;8.48;2.22;;;28.00;40.80;;;;;;5075380;28;20413;-49
2020/12/19 03:10:12;;;;;;;8.82;2.13;;;28.00;40.90;;;;;;5076456;28;20027;-49
2020/12/19 03:12:39;;;;;;;8.32;2.22;;;27.90;40.90;;;;;;5076761;28;20487;-49
2020/12/19 03:15:05;;;;;;;10.10;2.28;;;27.90;40.90;;;;;;5076456;28;20058;-49
2020/12/19 03:17:32;;;;;;;8.77;2.03;;;27.80;40.90;;;;;;5076943;28;20415;-49
2020/12/19 03:19:58;;;;;;;6.50;2.22;;;27.80;41.00;;;;;;5075317;28;20368;-49
2020/12/19 03:22:25;;;;;;;8.15;2.40;;;27.70;41.00;;;;;;5076135;28;20104;-49
2020/12/19 03:24:51;;;;;;;7.90;2.13;;;27.70;41.10;;;;;;5076474;28;20077;-50
2020/12/19 03:27:18;;;;;;;10.43;2.10;;;27.50;41.00;;;;;;5076041;28;20365;-49
2020/12/19 03:29:44;;;;;;;4.93;1.73;;;27.50;41.10;;;;;;5075794;28;20024;-49
2020/12/19 03:32:11;;;;;;;7.70;2.35;;;27.50;41.20;;;;;;5076390;28;20051;-49
2020/12/19 03:34:37;;;;;;;4.53;1.60;;;27.40;41.20;;;;;;5076703;28;20052;-49
2020/12/19 03:37:04;;;;;;;4.72;1.90;;;27.30;41.30;;;;;;5076316;28;20575;-49
2020/12/19 03:39:30;;;;;;;4.55;1.85;;;27.30;41.40;;;;;;5075878;28;20029;-49
2020/12/19 03:41:57;;;;;;;4.47;1.88;;;27.30;41.50;;;;;;5076241;28;20074;-49
2020/12/19 03:44:23;;;;;;;3.88;1.92;;;27.20;41.50;;;;;;5076190;28;20020;-49
2020/12/19 03:46:50;;;;;;;4.90;1.75;;;27.20;41.60;;;;;;5076142;28;20451;-49
2020/12/19 03:49:16;;;;;;;3.53;1.80;;;27.10;41.60;;;;;;5075439;28;20032;-49
2020/12/19 03:51:43;;;;;;;5.70;1.98;;;27.00;41.60;;;;;;5076052;28;20020;-49
2020/12/19 03:54:09;;;;;;;3.45;1.80;;;27.00;41.60;;;;;;5076001;28;20021;-50
2020/12/19 03:56:36;;;;;;;6.72;1.80;;;27.00;41.70;;;;;;5076212;28;20445;-49
2020/12/19 03:59:02;;;;;;;5.30;2.10;;;26.90;41.70;;;;;;5075955;28;20021;-49
2020/12/19 04:01:29;;;;;;;4.13;1.65;;;26.80;41.70;;;;;;5075451;28;20024;-49
2020/12/19 04:03:55;;;;;;;5.30;1.95;;;26.80;41.80;;;;;;5075387;28;20026;-50
2020/12/19 04:06:22;;;;;;;5.25;2.17;;;26.70;41.90;;;;;;5073968;28;20055;-50
2020/12/19 04:08:48;;;;;;;9.90;2.53;;;26.60;41.90;;;;;;5073614;28;20104;-49
2020/12/19 04:11:15;;;;;;;11.27;2.25;;;26.60;42.00;;;;;;5075451;28;20048;-49
2020/12/19 04:13:41;;;;;;;11.13;3.03;;;26.50;42.10;;;;;;5075544;28;20055;-49
2020/12/19 04:16:08;;;;;;;12.98;3.33;;;26.50;42.20;;;;;;5075212;28;20032;-48
2020/12/19 04:18:34;;;;;;;12.20;2.95;;;26.40;42.30;;;;;;5075213;28;20021;-49
2020/12/19 04:21:01;;;;;;;17.95;2.83;;;26.40;42.40;;;;;;5075385;28;20035;-48
2020/12/19 04:23:27;;;;;;;13.32;2.53;;;26.30;42.60;;;;;;5073983;28;20044;-49
2020/12/19 04:25:54;;;;;;;12.70;2.40;;;26.30;42.70;;;;;;5072231;28;20035;-49
2020/12/19 04:28:20;;;;;;;15.95;3.25;;;26.20;42.80;;;;;;5071572;28;20096;-49
2020/12/19 04:30:47;;;;;;;8.05;2.40;;;26.20;42.90;;;;;;5074471;28;20028;-49
2020/12/19 04:33:13;;;;;;;11.10;2.45;;;26.20;43.10;;;;;;5073994;28;20045;-49
2020/12/19 04:35:40;;;;;;;12.02;2.42;;;26.20;43.10;;;;;;5074745;28;20024;-48
2020/12/19 04:38:06;;;;;;;10.90;2.35;;;26.10;43.10;;;;;;5074826;28;20028;-49
2020/12/19 04:40:33;;;;;;;14.35;2.50;;;26.10;43.20;;;;;;5074389;28;20425;-49
2020/12/19 04:43:11;;;;;;;13.43;2.60;;;26.10;43.20;;;;;;5074794;28;20449;-49
2020/12/19 04:45:38;;;;;;;11.18;2.17;;;26.10;43.20;;;;;;5074308;28;21027;-49
2020/12/19 04:48:04;;;;;;;10.48;2.58;;;26.10;43.30;;;;;;5074677;28;20046;-49
2020/12/19 04:50:32;;;;;;;11.63;2.35;;;26.10;43.30;;;;;;5074847;28;20020;-49
2020/12/19 04:52:58;;;;;;;9.18;2.20;;;26.10;43.30;;;;;;5073704;28;20429;-49
2020/12/19 04:55:26;;;;;;;6.00;1.75;;;26.10;43.30;;;;;;5074743;28;20021;-49
2020/12/19 04:57:57;;;;;;;8.10;2.40;;;26.10;43.40;;;;;;5074719;28;20021;-49
2020/12/19 05:00:24;;;;;;;7.60;2.22;;;26.10;43.40;;;;;;5072942;28;20055;-49
2020/12/19 05:02:53;;;;;;;17.33;2.70;;;26.10;43.40;;;;;;5072914;28;20027;-49
2020/12/19 05:05:19;;;;;;;14.75;2.30;;;26.10;43.40;;;;;;5074169;28;20029;-49
2020/12/19 05:07:46;;;;;;;8.85;2.10;;;26.10;43.50;;;;;;5074465;28;20020;-49
2020/12/19 05:10:14;;;;;;;7.22;2.05;;;26.10;43.50;;;;;;5073776;28;20395;-49
2020/12/19 05:12:41;;;;;;;12.30;2.22;;;26.10;43.40;;;;;;5074283;28;20036;-49
2020/12/19 05:15:08;;;;;;;8.40;2.00;;;26.10;43.50;;;;;;5074229;28;20024;-49
2020/12/19 05:17:34;;;;;;;12.43;2.40;;;26.10;43.50;;;;;;5073920;28;20024;-49
2020/12/19 05:20:01;;;;;;;10.77;2.03;;;26.10;43.50;;;;;;5073855;28;20016;-49
2020/12/19 05:22:28;;;;;;;7.28;1.80;;;26.10;43.50;;;;;;5072764;28;20380;-49
2020/12/19 05:24:55;;;;;;;7.70;2.05;;;26.10;43.60;;;;;;5074547;28;20016;-49
2020/12/19 05:27:23;;;;;;;11.75;1.77;;;26.00;43.50;;;;;;5072546;28;20449;-49
2020/12/19 05:29:50;;;;;;;8.43;1.80;;;26.10;43.50;;;;;;5074108;28;20027;-49
2020/12/19 05:32:21;;;;;;;9.90;1.98;;;26.10;43.60;;;;;;5073808;28;20032;-49
2020/12/19 05:34:51;;;;;;;5.15;1.90;;;26.00;43.50;;;;;;5073335;28;20052;-49
2020/12/19 05:37:17;;;;;;;8.75;1.90;;;26.00;43.60;;;;;;5073415;28;20024;-49
2020/12/19 05:39:53;;;;;;;7.63;2.20;;;26.00;43.60;;;;;;5073896;28;20032;-49
2020/12/19 05:42:23;;;;;;;5.93;1.38;;;25.90;43.50;;;;;;5074010;28;20028;-49
2020/12/19 05:44:49;;;;;;;5.82;1.42;;;25.90;43.50;;;;;;5073037;28;20100;-49
2020/12/19 05:47:17;;;;;;;7.28;1.67;;;25.90;43.70;;;;;;5073787;28;20058;-49
2020/12/19 05:49:44;;;;;;;6.03;1.50;;;25.90;43.70;;;;;;5073295;28;20036;-49
2020/12/19 05:52:10;;;;;;;4.35;1.70;;;25.90;43.80;;;;;;5073651;28;20112;-49
2020/12/19 05:54:41;;;;;;;6.30;1.60;;;25.80;43.80;;;;;;5073180;28;20028;-49
2020/12/19 05:57:12;;;;;;;5.30;1.52;;;25.80;43.80;;;;;;5074117;28;20035;-49
2020/12/19 05:59:39;;;;;;;5.63;1.80;;;25.80;43.80;;;;;;5073761;28;20032;-49
2020/12/19 06:02:07;;;;;;;4.07;1.40;;;25.70;43.80;;;;;;5073084;28;20028;-49
2020/12/19 06:04:38;;;;;;;4.22;1.30;;;25.60;43.80;;;;;;5074042;28;20017;-49
2020/12/19 06:07:04;;;;;;;4.55;1.30;;;25.60;43.90;;;;;;5073844;28;20073;-49
2020/12/19 06:09:31;;;;;;;3.10;1.30;;;25.60;43.90;;;;;;5073724;28;20020;-49
2020/12/19 06:12:29;;;;;;;3.17;1.38;;;25.50;43.90;;;;;;5073785;28;20036;-49
2020/12/19 06:14:57;;;;;;;3.47;1.40;;;25.50;44.10;;;;;;5073435;28;20032;-49
2020/12/19 06:17:45;;;;;;;3.45;1.20;;;25.40;44.00;;;;;;5073710;28;20039;-49
2020/12/19 06:20:14;;;;;;;4.10;1.23;;;25.40;44.10;;;;;;5073553;28;20035;-49
2020/12/19 06:22:40;;;;;;;5.35;1.23;;;25.30;44.10;;;;;;5073837;28;20024;-49
2020/12/19 06:25:07;;;;;;;4.10;1.38;;;25.30;44.20;;;;;;5073608;28;20024;-49
2020/12/19 06:27:33;;;;;;;2.90;0.85;;;25.20;44.20;;;;;;5073299;28;20035;-49
2020/12/19 06:30:02;;;;;;;2.80;1.20;;;25.20;44.30;;;;;;5073097;28;20036;-49
2020/12/19 06:32:31;;;;;;;4.97;1.48;;;25.10;44.30;;;;;;5073285;28;20407;-49
2020/12/19 06:35:03;;;;;;;3.63;1.30;;;25.10;44.40;;;;;;5074749;28;20045;-49
2020/12/19 06:37:32;;;;;;;5.72;1.30;;;25.00;44.40;;;;;;5074022;28;20020;-49
2020/12/19 06:40:14;;;;;;;4.13;1.50;;;25.00;44.50;;;;;;5072856;28;20036;-49
2020/12/19 06:42:44;;;;;;;3.17;1.15;;;24.90;44.60;;;;;;5073667;28;20490;-49
2020/12/19 06:45:27;;;;;;;3.45;1.10;;;24.80;44.70;;;;;;5073110;28;20453;-49
2020/12/19 06:47:55;;;;;;;2.20;1.10;;;24.80;44.80;;;;;;5072259;28;20032;-49
2020/12/19 06:50:22;;;;;;;2.47;1.10;;;24.70;44.90;;;;;;5072869;28;20078;-49
2020/12/19 06:52:56;;;;;;;3.40;0.90;;;24.70;44.90;;;;;;5073465;28;20020;-49
2020/12/19 06:55:25;;;;;;;2.35;1.10;;;24.60;45.00;;;;;;5075430;28;20043;-49
2020/12/19 06:57:56;;;;;;;4.13;1.10;;;24.60;45.10;;;;;;5076783;28;20032;-49
2020/12/19 07:00:24;;;;;;;2.17;1.17;;;24.50;45.20;;;;;;5076591;28;20035;-49
2020/12/19 07:02:54;;;;;;;2.58;1.17;;;24.40;45.30;;;;;;5077165;28;20025;-49
2020/12/19 07:05:26;;;;;;;2.47;1.10;;;24.40;45.40;;;;;;5076556;28;20021;-49
2020/12/19 07:07:53;;;;;;;1.98;1.00;;;24.30;45.40;;;;;;5076394;28;20414;-49
2020/12/19 07:10:36;;;;;;;2.58;1.13;;;24.20;45.60;;;;;;5076375;28;20055;-50
2020/12/19 07:13:02;;;;;;;2.97;1.00;;;24.20;45.70;;;;;;5076627;28;20031;-49
2020/12/19 07:15:43;;;;;;;3.28;1.20;;;24.10;45.70;;;;;;5077044;28;20046;-49
2020/12/19 07:18:31;;;;;;;2.22;0.90;;;24.00;45.80;;;;;;5077139;28;20337;-49
2020/12/19 07:21:10;;;;;;;2.50;1.00;;;24.00;46.00;;;;;;5076563;28;20029;-49
2020/12/19 07:23:39;;;;;;;2.25;0.88;;;23.90;46.10;;;;;;5076145;28;20111;-49
2020/12/19 07:26:06;;;;;;;5.10;0.80;;;23.80;46.10;;;;;;5076163;28;20111;-49
2020/12/19 07:28:33;;;;;;;2.90;0.90;;;23.80;46.30;;;;;;5076354;28;20055;-49
2020/12/19 07:31:00;;;;;;;2.03;0.90;;;23.70;46.30;;;;;;5075885;28;20107;-49
2020/12/19 07:33:27;;;;;;;2.78;0.70;;;23.70;46.40;;;;;;5076188;28;20036;-50
2020/12/19 07:35:56;;;;;;;2.40;0.82;;;23.60;46.50;;;;;;5076086;28;20063;-49
2020/12/19 07:38:23;;;;;;;1.75;0.85;;;23.50;46.50;;;;;;5075894;28;20119;-49
2020/12/19 07:40:54;;;;;;;5.05;0.90;;;23.50;46.70;;;;;;5076478;28;20025;-49
2020/12/19 07:43:23;;;;;;;2.80;0.80;;;23.40;46.70;;;;;;5075930;28;20021;-49
2020/12/19 07:45:56;;;;;;;1.83;0.88;;;23.30;46.80;;;;;;5075850;28;20035;-49
2020/12/19 07:48:23;;;;;;;1.38;0.70;;;23.30;47.00;;;;;;5076124;28;20025;-49
2020/12/19 07:50:49;;;;;;;2.55;0.80;;;23.20;47.00;;;;;;5075866;28;20586;-49
2020/12/19 07:53:16;;;;;;;3.83;0.77;;;23.10;47.00;;;;;;5075159;28;20028;-49
2020/12/19 07:55:50;;;;;;;1.92;0.80;;;23.10;47.10;;;;;;5074548;28;20070;-49
2020/12/19 07:58:19;;;;;;;1.65;0.80;;;23.00;47.20;;;;;;5075716;28;20020;-49
2020/12/19 08:00:45;;;;;;;1.95;0.82;;;23.00;47.30;;;;;;5075920;28;20012;-49
2020/12/19 08:03:12;;;;;;;2.25;0.82;;;22.90;47.50;;;;;;5075828;28;20040;-49
2020/12/19 08:05:38;;;;;;;2.08;0.90;;;22.80;47.50;;;;;;5075037;28;20047;-49
2020/12/19 08:08:05;;;;;;;1.35;0.70;;;22.80;47.60;;;;;;5075173;28;20434;-49
2020/12/19 08:10:31;;;;;;;1.67;0.90;;;22.70;47.70;;;;;;5075586;28;20033;-49
2020/12/19 08:13:00;;;;;;;3.28;0.95;;;22.70;47.70;;;;;;5075098;28;20036;-49
2020/12/19 08:15:27;;;;;;;3.03;0.65;;;22.60;47.80;;;;;;5075890;28;20449;-49
2020/12/19 08:18:08;;;;;;;3.47;0.80;;;22.50;47.90;;;;;;5075219;28;20031;-49
2020/12/19 08:20:40;;;;;;;1.77;0.90;;;22.50;48.00;;;;;;5075259;28;20020;-49
2020/12/19 08:23:08;;;;;;;1.52;0.70;;;22.40;48.10;;;;;;5074763;28;20029;-49
2020/12/19 08:25:38;;;;;;;1.85;1.00;;;22.30;48.10;;;;;;5075255;28;20342;-49
2020/12/19 08:28:04;;;;;;;1.45;0.68;;;22.30;48.30;;;;;;5074883;28;20483;-50
2020/12/19 08:30:32;;;;;;;0.98;0.60;;;22.20;48.40;;;;;;5074484;28;20571;-49
2020/12/19 08:33:08;;;;;;;1.15;0.68;;;22.10;48.50;;;;;;5074983;28;20334;-49
2020/12/19 08:35:42;;;;;;;1.27;0.63;;;22.10;48.60;;;;;;5074926;28;20035;-49
2020/12/19 08:38:09;;;;;;;1.45;0.82;;;22.00;48.70;;;;;;5074681;28;20027;-49
2020/12/19 08:40:36;;;;;;;0.85;0.60;;;22.00;49.50;;;;;;5075088;28;20023;-49
2020/12/19 08:43:04;;;;;;;2.58;0.70;;;21.90;48.90;;;;;;5074955;28;20047;-49
2020/12/19 08:45:34;;;;;;;1.33;0.63;;;21.80;48.90;;;;;;5074790;28;20054;-49
2020/12/19 08:48:21;;;;;;;1.60;0.70;;;21.80;49.10;;;;;;5075239;28;20468;-49
2020/12/19 08:50:50;;;;;;;0.95;0.55;;;21.70;49.20;;;;;;5074675;28;20112;-49
2020/12/19 08:53:21;;;;;;;1.20;0.60;;;21.70;49.30;;;;;;5074866;28;20475;-49
2020/12/19 08:55:49;;;;;;;2.20;1.00;;;21.60;49.50;;;;;;5074678;28;20031;-49
2020/12/19 08:58:28;;;;;;;1.17;0.65;;;21.60;49.60;;;;;;5074774;28;20021;-49
2020/12/19 09:01:00;;;;;;;2.00;0.55;;;21.50;49.80;;;;;;5074307;28;20104;-49
2020/12/19 09:03:34;;;;;;;2.38;0.50;;;21.40;49.70;;;;;;5074437;28;20103;-49
2020/12/19 09:06:16;;;;;;;1.60;0.60;;;21.40;49.90;;;;;;5074476;28;20029;-50
2020/12/19 09:08:44;;;;;;;1.55;0.90;;;21.30;49.90;;;;;;5073916;28;20033;-49
2020/12/19 09:11:28;;;;;;;1.40;0.70;;;21.30;49.90;;;;;;5074528;28;20024;-49
2020/12/19 09:14:11;;;;;;;1.38;0.60;;;21.20;49.90;;;;;;5074212;28;20017;-49
2020/12/19 09:16:50;;;;;;;0.40;0.40;;;21.10;50.00;;;;;;5074317;28;20115;-49
2020/12/19 09:19:19;;;;;;;0.75;0.45;;;21.10;50.10;;;;;;5074048;28;20025;-49
2020/12/19 09:21:56;;;;;;;0.70;0.43;;;21.00;50.30;;;;;;5073993;28;20056;-50
2020/12/19 09:24:23;;;;;;;1.88;0.60;;;21.00;50.30;;;;;;5073713;28;20445;-49
2020/12/19 09:26:50;;;;;;;2.08;0.50;;;20.90;50.40;;;;;;5074257;28;20019;-49
2020/12/19 09:29:17;;;;;;;1.67;0.50;;;20.80;50.50;;;;;;5073417;28;20112;-49
2020/12/19 09:31:44;;;;;;;1.00;0.50;;;20.80;50.60;;;;;;5074160;28;20028;-49
2020/12/19 09:34:11;;;;;;;1.17;0.60;;;20.80;50.70;;;;;;5074037;28;20071;-49
2020/12/19 09:36:38;;;;;;;1.25;0.57;;;20.70;50.80;;;;;;5073629;28;20032;-49
2020/12/19 09:39:05;;;;;;;0.70;0.50;;;20.60;50.90;;;;;;5074115;28;20077;-50
2020/12/19 09:41:32;;;;;;;3.13;0.50;;;20.60;51.10;;;;;;5072567;28;20425;-49
2020/12/19 09:43:59;;;;;;;0.60;0.50;;;20.50;51.00;;;;;;5072894;28;20021;-49
2020/12/19 09:46:26;;;;;;;0.40;0.40;;;20.50;51.10;;;;;;5072487;28;20037;-50
2020/12/19 09:48:52;;;;;;;1.45;0.50;;;20.40;51.10;;;;;;5074138;28;20391;-49
2020/12/19 09:51:19;;;;;;;1.00;0.52;;;20.40;51.30;;;;;;5073769;28;20025;-49
2020/12/19 09:53:45;;;;;;;0.68;0.50;;;20.40;51.40;;;;;;5073618;28;20583;-49
2020/12/19 09:56:12;;;;;;;0.40;0.40;;;20.30;51.40;;;;;;5072575;28;20452;-50
2020/12/19 09:58:38;;;;;;;1.63;0.52;;;20.20;51.40;;;;;;5074694;28;20036;-49
2020/12/19 10:01:05;;;;;;;2.85;0.60;;;20.20;51.60;;;;;;5073549;28;20028;-49
2020/12/19 10:03:31;;;;;;;1.90;0.43;;;20.10;51.90;;;;;;5073788;28;20025;-50
2020/12/19 10:05:58;;;;;;;0.52;0.40;;;20.10;51.90;;;;;;5073406;28;20031;-50
2020/12/19 10:08:26;;;;;;;1.38;0.60;;;20.10;52.00;;;;;;5073964;28;20095;-50
2020/12/19 10:10:52;;;;;;;0.45;0.45;;;20.00;52.10;;;;;;5073363;28;20032;-50
2020/12/19 10:13:19;;;;;;;1.33;0.40;;;20.00;52.10;;;;;;5073450;28;20449;-50
2020/12/19 10:15:45;;;;;;;0.70;0.40;;;19.90;52.20;;;;;;5073081;28;20029;-49
2020/12/19 10:18:12;;;;;;;0.82;0.63;;;19.90;52.30;;;;;;5073676;28;20021;-50
2020/12/19 10:20:39;;;;;;;6.20;0.80;;;19.80;52.40;;;;;;5073446;28;20021;-49
2020/12/19 10:23:06;;;;;;;8.02;0.85;;;19.80;52.80;;;;;;5073677;28;20021;-49
2020/12/19 10:25:32;;;;;;;7.00;1.13;;;19.70;52.70;;;;;;5072902;28;20032;-49
2020/12/19 10:27:59;;;;;;;6.75;1.23;;;19.70;52.70;;;;;;5073066;28;20029;-50
2020/12/19 10:30:25;;;;;;;0.88;0.38;;;19.70;52.70;;;;;;5075412;28;20035;-50
2020/12/19 10:32:52;;;;;;;3.92;0.70;;;19.60;52.70;;;;;;5077343;28;20028;-50
2020/12/19 10:35:18;;;;;;;1.88;0.70;;;19.60;52.70;;;;;;5077306;28;20056;-49
2020/12/19 10:37:46;;;;;;;3.15;0.75;;;19.50;52.70;;;;;;5078101;28;20221;-49
2020/12/19 10:40:13;;;;;;;2.47;0.55;;;19.50;52.80;;;;;;5076953;28;20020;-49
2020/12/19 10:42:39;;;;;;;1.55;0.60;;;19.50;52.80;;;;;;5077092;28;20449;-50
2020/12/19 10:45:06;;;;;;;1.92;0.50;;;19.40;52.90;;;;;;5076762;28;20021;-49
2020/12/19 10:47:32;;;;;;;0.63;0.40;;;19.40;53.60;;;;;;5076863;28;20025;-49
2020/12/19 10:49:59;;;;;;;1.40;0.60;;;19.30;53.00;;;;;;5077025;28;20463;-49
2020/12/19 10:52:25;;;;;;;2.05;0.60;;;19.30;53.10;;;;;;5077190;28;20021;-50
2020/12/19 10:54:52;;;;;;;3.35;0.60;;;19.20;53.10;;;;;;5076454;28;20055;-50
2020/12/19 10:57:18;;;;;;;1.42;0.50;;;19.20;53.20;;;;;;5077397;28;20445;-50
2020/12/19 10:59:45;;;;;;;2.25;0.52;;;19.20;53.20;;;;;;5076831;28;20035;-50
2020/12/19 11:02:11;;;;;;;1.83;0.50;;;19.10;53.30;;;;;;5076344;28;20028;-49
2020/12/19 11:04:38;;;;;;;3.28;0.60;;;19.10;53.40;;;;;;5076976;28;20023;-50
2020/12/19 11:07:04;;;;;;;2.72;0.57;;;19.00;53.40;;;;;;5076736;28;20099;-50
2020/12/19 11:09:31;;;;;;;4.68;0.50;;;19.00;53.50;;;;;;5077260;28;20025;-50
2020/12/19 11:11:57;;;;;;;1.92;0.52;;;19.00;53.70;;;;;;5076145;28;20020;-49
2020/12/19 11:14:25;;;;;;;1.00;0.43;;;19.00;53.80;;;;;;5077009;28;20025;-50
2020/12/19 11:16:56;;;;;;;2.15;0.50;;;18.90;53.80;;;;;;5076011;28;20032;-49
2020/12/19 11:19:23;;;;;;;0.25;0.25;;;18.90;53.90;;;;;;5077268;28;20024;-50
2020/12/19 11:21:49;;;;;;;1.92;0.60;;;18.80;53.90;;;;;;5076405;28;20078;-50
2020/12/19 11:24:16;;;;;;;0.77;0.40;;;18.80;53.90;;;;;;5075797;28;20457;-50
2020/12/19 11:26:43;;;;;;;1.38;0.40;;;18.80;54.00;;;;;;5076850;28;20031;-50
2020/12/19 11:29:10;;;;;;;1.77;0.75;;;18.70;54.00;;;;;;5076489;28;20029;-49
2020/12/19 11:31:37;;;;;;;1.67;0.50;;;18.70;54.20;;;;;;5076216;28;20029;-49
2020/12/19 11:34:04;;;;;;;1.10;0.40;;;18.70;54.30;;;;;;5076196;28;20402;-49
2020/12/19 11:36:30;;;;;;;1.70;0.30;;;18.60;54.30;;;;;;5076637;28;20025;-49
2020/12/19 11:38:57;;;;;;;2.72;0.60;;;18.60;54.40;;;;;;5076276;28;20024;-49
2020/12/19 11:41:25;;;;;;;2.40;0.57;;;18.60;54.70;;;;;;5074077;28;20021;-49
2020/12/19 11:43:52;;;;;;;6.90;0.70;;;18.50;54.70;;;;;;5076228;28;20021;-50
2020/12/19 11:46:18;;;;;;;4.45;0.65;;;18.50;55.00;;;;;;5075893;28;20031;-49
2020/12/19 11:48:45;;;;;;;1.13;0.50;;;18.50;54.90;;;;;;5076101;28;20075;-49
2020/12/19 11:51:12;;;;;;;1.40;0.50;;;18.40;54.90;;;;;;5075554;28;20384;-50
2020/12/19 11:53:39;;;;;;;4.65;0.77;;;18.40;55.00;;;;;;5074611;28;20033;-49
2020/12/19 11:56:05;;;;;;;2.60;0.80;;;18.40;55.00;;;;;;5075958;28;20028;-49
2020/12/19 11:58:33;;;;;;;1.55;0.60;;;18.40;55.20;;;;;;5076031;28;20441;-49
2020/12/19 12:01:00;;;;;;;2.58;0.50;;;18.30;55.10;;;;;;5074963;28;20021;-49
2020/12/19 12:03:26;;;;;;;1.60;0.50;;;18.30;55.20;;;;;;5076160;28;20453;-49
2020/12/19 12:05:53;;;;;;;1.73;0.57;;;18.30;55.10;;;;;;5075827;28;20066;-49
2020/12/19 12:08:19;;;;;;;1.08;0.55;;;18.30;55.10;;;;;;5076076;28;20108;-49
2020/12/19 19:22:29;;;;;;;11.65;3.63;;;21.70;53.70;;;;;;6132775;22;2667509;-48
2020/12/19 19:24:55;;;;;;;9.13;3.15;;;21.90;53.40;;;;;;6248086;23;20079;-48
2020/12/19 19:27:22;;;;;;;8.80;3.03;;;22.10;53.00;;;;;;6247950;23;20004;-48
2020/12/19 19:29:49;;;;;;;7.35;3.10;;;22.30;52.80;;;;;;6248022;23;20413;-48
2020/12/19 19:32:15;;;;;;;9.60;2.80;;;22.40;52.30;;;;;;6247747;23;20023;-47
2020/12/19 19:34:42;;;;;;;9.98;2.88;;;22.70;52.10;;;;;;6248019;23;19996;-48
2020/12/19 19:37:10;;;;;;;10.45;2.97;;;22.80;51.80;;;;;;6247764;23;20011;-47
2020/12/19 19:39:37;;;;;;;6.68;3.10;;;23.00;51.50;;;;;;6247990;23;19996;-48
2020/12/19 19:42:04;;;;;;;8.57;3.00;;;23.20;51.10;;;;;;6247779;23;20422;-48
2020/12/19 19:44:30;;;;;;;9.45;2.90;;;23.40;50.70;;;;;;6247859;23;20066;-48
2020/12/19 19:46:57;;;;;;;14.40;3.65;;;23.60;50.40;;;;;;6247401;23;20083;-48
2020/12/19 19:49:24;;;;;;;7.03;2.90;;;23.80;49.80;;;;;;6247334;23;20390;-48
2020/12/19 19:51:51;;;;;;;6.43;2.67;;;24.00;49.40;;;;;;6247757;23;20418;-48
2020/12/19 19:54:18;;;;;;;9.27;3.08;;;24.20;49.20;;;;;;6247970;23;20004;-48
2020/12/19 19:56:44;;;;;;;7.15;2.65;;;24.40;48.80;;;;;;6247627;23;20077;-48
2020/12/19 19:59:11;;;;;;;9.57;2.50;;;24.60;48.50;;;;;;6247586;23;20062;-48
2020/12/19 20:01:42;;;;;;;7.07;2.78;;;24.80;48.10;;;;;;6246640;23;19996;-48